createdAt,value
2018-11-13T00:02:18.589Z,29.53
2018-11-13T00:04:46.580Z,30.27
2018-11-13T00:07:14.677Z,31.10
2018-11-13T00:09:42.770Z,32.83
2018-11-13T00:12:10.817Z,29.57
2018-11-13T00:14:38.856Z,30.43
2018-11-13T00:17:06.884Z,30.73
2018-11-13T00:19:34.947Z,31.70
2018-11-13T00:22:02.958Z,31.63
2018-11-13T00:24:30.966Z,30.03
2018-11-13T00:26:59.297Z,30.47
2018-11-13T00:29:27.392Z,28.93
2018-11-13T00:31:55.337Z,30.55
2018-11-13T00:34:23.330Z,29.83
2018-11-13T00:36:51.414Z,29.40
2018-11-13T00:39:19.946Z,27.80
2018-11-13T00:41:47.537Z,29.67
2018-11-13T00:44:15.677Z,29.30
2018-11-13T00:46:43.821Z,27.70
2018-11-13T00:49:11.801Z,28.33
2018-11-13T00:51:39.965Z,28.70
2018-11-13T00:54:07.960Z,30.20
2018-11-13T00:56:36.091Z,31.67
2018-11-13T00:59:04.328Z,30.60
2018-11-13T01:01:32.386Z,32.03
2018-11-13T01:04:00.426Z,29.00
2018-11-13T01:06:28.565Z,30.97
2018-11-13T01:08:56.553Z,29.07
2018-11-13T01:11:24.636Z,29.27
2018-11-13T01:13:52.809Z,29.97
2018-11-13T01:16:20.796Z,31.37
2018-11-13T01:18:48.842Z,29.10
2018-11-13T01:21:17.009Z,32.97
2018-11-13T01:23:45.043Z,30.63
2018-11-13T01:26:13.089Z,30.53
2018-11-13T01:28:41.134Z,32.10
2018-11-13T01:31:09.104Z,31.63
2018-11-13T01:33:37.428Z,31.17
2018-11-13T01:36:05.729Z,29.87
2018-11-13T01:38:33.753Z,32.87
2018-11-13T01:41:01.925Z,30.60
2018-11-13T01:43:29.997Z,32.50
2018-11-13T01:45:58.008Z,32.87
2018-11-13T01:48:26.005Z,34.07
2018-11-13T01:50:54.014Z,31.90
2018-11-13T01:53:22.099Z,31.80
2018-11-13T01:55:50.081Z,31.00
2018-11-13T01:58:18.132Z,35.17
2018-11-13T02:00:46.068Z,30.20
2018-11-13T02:03:14.052Z,31.20
2018-11-13T02:05:42.029Z,32.37
2018-11-13T02:08:10.116Z,32.90
2018-11-13T02:10:38.123Z,33.13
2018-11-13T02:13:06.541Z,35.13
2018-11-13T02:15:34.642Z,35.00
2018-11-13T02:18:02.630Z,34.87
2018-11-13T02:20:30.636Z,34.83
2018-11-13T02:22:58.758Z,35.00
2018-11-13T02:25:26.825Z,34.30
2018-11-13T02:27:54.827Z,33.10
2018-11-13T02:30:23.593Z,32.57
2018-11-13T02:32:51.802Z,33.27
2018-11-13T02:35:19.958Z,33.87
2018-11-13T02:37:47.937Z,34.30
2018-11-13T02:40:16.229Z,35.63
2018-11-13T02:42:44.299Z,33.37
2018-11-13T02:45:15.425Z,33.30
2018-11-13T02:47:43.581Z,32.63
2018-11-13T02:50:13.855Z,34.10
2018-11-13T02:52:42.063Z,33.33
2018-11-13T02:55:10.790Z,33.13
2018-11-13T02:57:38.855Z,35.60
2018-11-13T03:00:09.786Z,32.80
2018-11-13T03:02:37.873Z,35.90
2018-11-13T03:05:07.116Z,35.20
2018-11-13T03:07:35.149Z,35.73
2018-11-13T03:10:03.686Z,33.50
2018-11-13T03:12:31.704Z,36.40
2018-11-13T03:14:59.798Z,31.50
2018-11-13T03:17:28.062Z,34.20
2018-11-13T03:19:56.577Z,34.50
2018-11-13T03:22:24.587Z,36.37
2018-11-13T03:24:53.064Z,34.77
2018-11-13T03:27:21.096Z,33.20
2018-11-13T03:29:49.061Z,34.13
2018-11-13T03:32:17.093Z,35.37
2018-11-13T03:34:45.073Z,32.10
2018-11-13T03:37:13.100Z,35.60
2018-11-13T03:39:41.144Z,33.63
2018-11-13T03:42:09.165Z,33.40
2018-11-13T03:44:37.292Z,33.30
2018-11-13T03:47:05.633Z,34.97
2018-11-13T03:49:33.616Z,37.60
2018-11-13T03:52:01.656Z,36.50
2018-11-13T03:54:29.633Z,40.00
2018-11-13T03:56:57.688Z,36.70
2018-11-13T03:59:25.687Z,37.47
2018-11-13T04:01:53.692Z,36.07
2018-11-13T04:04:21.704Z,36.33
2018-11-13T04:06:49.712Z,37.93
2018-11-13T04:09:17.826Z,36.20
2018-11-13T04:11:45.920Z,35.60
2018-11-13T04:14:13.945Z,36.47
2018-11-13T04:16:42.012Z,36.40
2018-11-13T04:19:10.048Z,39.70
2018-11-13T04:21:38.427Z,35.90
2018-11-13T04:24:06.839Z,37.10
2018-11-13T04:26:35.145Z,38.47
2018-11-13T04:29:03.184Z,37.40
2018-11-13T04:31:31.213Z,35.57
2018-11-13T04:33:59.217Z,35.00
2018-11-13T04:36:27.252Z,34.10
2018-11-13T04:38:55.342Z,36.77
2018-11-13T04:41:23.368Z,33.90
2018-11-13T04:43:51.372Z,37.60
2018-11-13T04:46:19.500Z,34.13
2018-11-13T04:48:47.603Z,35.57
2018-11-13T04:51:15.589Z,37.30
2018-11-13T04:53:43.607Z,35.07
2018-11-13T04:56:11.609Z,33.10
2018-11-13T04:58:39.697Z,32.90
2018-11-13T05:01:07.696Z,34.90
2018-11-13T05:03:35.793Z,33.53
2018-11-13T05:06:03.823Z,33.97
2018-11-13T05:08:31.837Z,33.07
2018-11-13T05:10:59.845Z,33.60
2018-11-13T05:13:27.945Z,34.30
2018-11-13T05:15:56.268Z,32.30
2018-11-13T05:18:24.349Z,33.40
2018-11-13T05:20:52.367Z,32.37
2018-11-13T05:23:20.403Z,34.47
2018-11-13T05:25:48.420Z,33.23
2018-11-13T05:28:16.469Z,31.73
2018-11-13T05:30:44.588Z,31.83
2018-11-13T05:33:12.569Z,33.13
2018-11-13T05:35:40.572Z,34.80
2018-11-13T05:38:08.617Z,35.60
2018-11-13T05:40:36.643Z,31.47
2018-11-13T05:43:04.677Z,33.93
2018-11-13T05:45:32.737Z,34.80
2018-11-13T05:48:00.806Z,35.10
2018-11-13T05:50:28.876Z,32.13
2018-11-13T05:52:56.896Z,34.27
2018-11-13T05:55:25.347Z,31.40
2018-11-13T05:57:53.356Z,33.10
2018-11-13T06:00:26.572Z,33.13
2018-11-13T06:02:54.849Z,31.73
2018-11-13T06:05:24.029Z,32.27
2018-11-13T06:07:52.080Z,30.20
2018-11-13T06:10:20.284Z,32.90
2018-11-13T06:12:48.534Z,32.90
2018-11-13T06:15:16.561Z,33.40
2018-11-13T06:17:44.724Z,35.03
2018-11-13T06:20:14.103Z,35.67
2018-11-13T06:22:42.328Z,35.47
2018-11-13T06:25:12.230Z,34.90
2018-11-13T06:27:41.322Z,34.60
2018-11-13T06:30:13.457Z,35.53
2018-11-13T06:32:41.549Z,36.40
2018-11-13T06:35:09.573Z,37.73
2018-11-13T06:37:37.980Z,36.63
2018-11-13T06:40:06.689Z,39.20
2018-11-13T06:42:34.765Z,41.37
2018-11-13T06:45:02.800Z,37.43
2018-11-13T06:47:30.866Z,41.77
2018-11-13T06:49:59.080Z,38.80
2018-11-13T06:52:27.098Z,39.70
2018-11-13T06:55:07.821Z,40.53
2018-11-13T06:57:35.869Z,39.10
2018-11-13T07:00:06.002Z,42.90
2018-11-13T07:02:34.028Z,41.20
2018-11-13T07:05:02.072Z,42.30
2018-11-13T07:07:30.078Z,42.90
2018-11-13T07:09:58.076Z,43.10
2018-11-13T07:12:26.194Z,43.00
2018-11-13T07:14:54.292Z,42.97
2018-11-13T07:17:22.375Z,41.50
2018-11-13T07:19:50.370Z,42.50
2018-11-13T07:22:18.516Z,40.27
2018-11-13T07:24:46.497Z,40.90
2018-11-13T07:27:14.586Z,41.70
2018-11-13T07:29:42.609Z,43.67
2018-11-13T07:32:10.633Z,40.10
2018-11-13T07:34:38.609Z,39.37
2018-11-13T07:37:06.666Z,42.90
2018-11-13T07:39:34.696Z,41.30
2018-11-13T07:42:02.693Z,40.53
2018-11-13T07:44:30.729Z,39.43
2018-11-13T07:46:58.782Z,39.77
2018-11-13T07:49:26.789Z,37.70
2018-11-13T07:51:54.792Z,38.00
2018-11-13T07:54:22.924Z,39.70
2018-11-13T07:56:51.073Z,41.17
2018-11-13T07:59:19.140Z,38.57
2018-11-13T08:01:47.201Z,38.73
2018-11-13T08:04:15.257Z,34.40
2018-11-13T08:06:43.334Z,37.30
2018-11-13T08:09:11.281Z,35.40
2018-11-13T08:11:39.293Z,32.97
2018-11-13T08:14:07.285Z,37.83
2018-11-13T08:16:35.314Z,33.23
2018-11-13T08:19:03.273Z,34.40
2018-11-13T08:21:31.573Z,34.03
2018-11-13T08:23:59.857Z,31.67
2018-11-13T08:26:27.881Z,34.73
2018-11-13T08:28:55.951Z,33.47
2018-11-13T08:31:24.137Z,31.57
2018-11-13T08:33:52.307Z,32.10
2018-11-13T08:36:20.342Z,29.23
2018-11-13T08:38:48.335Z,31.27
2018-11-13T08:41:16.356Z,28.47
2018-11-13T08:43:44.386Z,27.33
2018-11-13T08:46:12.317Z,26.50
2018-11-13T08:48:40.353Z,27.60
2018-11-13T08:51:08.349Z,26.90
2018-11-13T08:53:36.357Z,22.27
2018-11-13T08:56:04.457Z,21.20
2018-11-13T08:58:32.607Z,22.57
2018-11-13T09:01:01.423Z,21.93
2018-11-13T09:03:29.497Z,21.63
2018-11-13T09:05:57.503Z,23.07
2018-11-13T09:08:25.517Z,21.43
2018-11-13T09:10:53.516Z,23.73
2018-11-13T09:13:21.553Z,21.93
2018-11-13T09:15:49.613Z,22.17
2018-11-13T09:18:17.617Z,22.00
2018-11-13T09:20:45.828Z,21.27
2018-11-13T09:23:13.869Z,23.00
2018-11-13T09:25:41.896Z,21.30
2018-11-13T09:28:09.981Z,19.97
2018-11-13T09:30:38.357Z,18.87
2018-11-13T09:33:06.235Z,22.90
2018-11-13T09:35:34.177Z,19.07
2018-11-13T09:38:02.213Z,18.97
2018-11-13T09:40:30.208Z,18.50
2018-11-13T09:42:58.224Z,18.83
2018-11-13T09:45:26.248Z,16.97
2018-11-13T09:47:54.393Z,17.90
2018-11-13T09:50:22.376Z,16.70
2018-11-13T09:52:51.680Z,17.23
2018-11-13T09:55:21.025Z,17.20
2018-11-13T09:57:49.197Z,15.73
2018-11-13T10:00:21.368Z,16.83
2018-11-13T10:02:51.111Z,17.27
2018-11-13T10:05:19.606Z,14.23
2018-11-13T10:07:47.821Z,15.03
2018-11-13T10:10:15.896Z,14.93
2018-11-13T10:12:43.837Z,14.60
2018-11-13T10:15:14.402Z,14.83
2018-11-13T10:17:42.713Z,14.13
2018-11-13T10:20:12.302Z,13.70
2018-11-13T10:22:40.821Z,13.03
2018-11-13T10:25:09.645Z,14.37
2018-11-13T10:27:37.728Z,14.43
2018-11-13T10:30:08.255Z,14.60
2018-11-13T10:32:36.237Z,12.93
2018-11-13T10:35:04.418Z,11.40
2018-11-13T10:37:32.438Z,12.77
2018-11-13T10:40:00.443Z,11.87
2018-11-13T10:42:28.661Z,11.90
2018-11-13T10:44:56.683Z,12.70
2018-11-13T10:47:24.653Z,11.47
2018-11-13T10:49:52.657Z,10.60
2018-11-13T10:52:20.657Z,10.10
2018-11-13T10:54:48.645Z,10.80
2018-11-13T10:57:16.637Z,10.70
2018-11-13T10:59:44.637Z,11.40
2018-11-13T11:02:18.190Z,11.30
2018-11-13T11:04:49.139Z,12.50
2018-11-13T11:07:17.141Z,9.60
2018-11-13T11:09:45.466Z,10.77
2018-11-13T11:12:13.858Z,9.90
2018-11-13T11:14:42.101Z,11.43
2018-11-13T11:17:10.573Z,11.13
2018-11-13T11:19:38.585Z,9.47
2018-11-13T11:22:06.768Z,10.20
2018-11-13T11:24:34.812Z,8.40
2018-11-13T11:27:02.829Z,8.53
2018-11-13T11:29:30.842Z,8.43
2018-11-13T11:31:58.892Z,8.07
2018-11-13T11:34:27.129Z,7.40
2018-11-13T11:36:55.269Z,7.50
2018-11-13T11:39:23.524Z,6.30
2018-11-13T11:41:51.664Z,7.20
2018-11-13T11:44:19.708Z,6.80
2018-11-13T11:46:47.686Z,8.27
2018-11-13T11:49:15.711Z,7.50
2018-11-13T11:51:43.957Z,7.63
2018-11-13T11:54:12.038Z,6.90
2018-11-13T11:56:40.045Z,7.00
2018-11-13T11:59:08.044Z,6.90
2018-11-13T12:01:36.024Z,5.80
2018-11-13T12:04:04.129Z,6.47
2018-11-13T12:06:32.125Z,6.00
2018-11-13T12:09:00.100Z,6.83
2018-11-13T12:11:28.089Z,6.00
2018-11-13T12:13:56.064Z,5.20
2018-11-13T12:16:24.056Z,4.90
2018-11-13T12:18:52.058Z,5.20
2018-11-13T12:21:20.094Z,5.83
2018-11-13T12:23:48.101Z,4.60
2018-11-13T12:26:16.104Z,5.73
2018-11-13T12:28:44.119Z,4.97
2018-11-13T12:31:12.219Z,5.07
2018-11-13T12:33:40.228Z,4.03
2018-11-13T12:36:08.222Z,4.27
2018-11-13T12:38:36.304Z,4.40
2018-11-13T12:41:04.456Z,4.07
2018-11-13T12:43:33.569Z,4.03
2018-11-13T12:46:01.640Z,3.80
2018-11-13T12:48:29.632Z,3.80
2018-11-13T12:51:05.144Z,3.77
2018-11-13T12:53:33.980Z,3.63
2018-11-13T12:56:02.031Z,4.10
2018-11-13T12:58:31.012Z,3.90
2018-11-13T13:00:58.999Z,3.60
2018-11-13T13:03:27.025Z,3.30
2018-11-13T13:05:55.224Z,3.53
2018-11-13T13:08:23.261Z,3.53
2018-11-13T13:10:51.370Z,3.50
2018-11-13T13:13:19.353Z,3.53
2018-11-13T13:15:47.333Z,3.97
2018-11-13T13:18:15.329Z,3.87
2018-11-13T13:20:43.326Z,4.87
2018-11-13T13:23:11.313Z,4.73
2018-11-13T13:25:39.304Z,5.00
2018-11-13T13:28:07.378Z,4.03
2018-11-13T13:30:35.382Z,4.00
2018-11-13T13:33:03.381Z,3.90
2018-11-13T13:35:46.601Z,3.97
2018-11-13T13:38:14.705Z,3.80
2018-11-13T13:40:43.801Z,3.40
2018-11-13T13:43:12.649Z,4.20
2018-11-13T13:45:41.461Z,4.27
2018-11-13T13:48:09.501Z,3.50
2018-11-13T13:50:37.885Z,3.30
2018-11-13T13:53:06.381Z,2.83
2018-11-13T13:55:34.375Z,3.33
2018-11-13T13:58:02.384Z,3.70
2018-11-13T14:00:30.690Z,2.93
2018-11-13T14:02:58.644Z,3.50
2018-11-13T14:05:26.691Z,3.13
2018-11-13T14:07:54.701Z,4.53
2018-11-13T14:10:22.949Z,3.40
2018-11-13T14:12:50.963Z,4.13
2018-11-13T14:15:19.210Z,3.90
2018-11-13T14:17:47.381Z,4.10
2018-11-13T14:20:17.781Z,3.17
2018-11-13T14:22:45.777Z,3.00
2018-11-13T14:25:14.404Z,3.17
2018-11-13T14:27:42.493Z,3.10
2018-11-13T14:30:19.153Z,3.53
2018-11-13T14:32:47.930Z,3.43
2018-11-13T14:35:16.333Z,3.63
2018-11-13T14:37:44.413Z,3.30
2018-11-13T14:40:16.041Z,4.30
2018-11-13T14:42:44.664Z,3.60
2018-11-13T14:45:12.678Z,3.43
2018-11-13T14:47:41.791Z,5.00
2018-11-13T14:50:11.950Z,4.00
2018-11-13T14:52:40.081Z,4.30
2018-11-13T14:55:10.659Z,4.50
2018-11-13T14:57:38.729Z,3.40
2018-11-13T15:00:11.145Z,4.00
2018-11-13T15:02:39.440Z,4.53
2018-11-13T15:05:08.727Z,4.80
2018-11-13T15:07:36.707Z,4.20
2018-11-13T15:10:06.481Z,4.80
2018-11-13T15:12:34.477Z,4.00
2018-11-13T15:15:02.518Z,3.80
2018-11-13T15:17:30.445Z,3.63
2018-11-13T15:19:58.412Z,4.03
2018-11-13T15:22:26.519Z,3.83
2018-11-13T15:24:54.393Z,4.83
2018-11-13T15:27:22.597Z,2.90
2018-11-13T15:29:50.648Z,3.47
2018-11-13T15:32:18.633Z,3.47
2018-11-13T15:34:46.614Z,3.80
2018-11-13T15:37:15.294Z,4.37
2018-11-13T15:39:43.284Z,4.33
2018-11-13T15:42:11.472Z,3.83
2018-11-13T15:44:39.608Z,4.60
2018-11-13T15:47:07.544Z,4.40
2018-11-13T15:49:35.533Z,3.73
2018-11-13T15:52:03.690Z,3.87
2018-11-13T15:54:31.590Z,3.70
2018-11-13T15:56:59.598Z,3.53
2018-11-13T15:59:27.624Z,3.50
2018-11-13T16:01:56.693Z,3.65
2018-11-13T16:04:24.694Z,4.00
2018-11-13T16:06:53.752Z,3.93
2018-11-13T16:09:21.752Z,3.40
2018-11-13T16:11:49.753Z,3.17
2018-11-13T16:14:17.768Z,3.70
2018-11-13T16:16:45.757Z,3.40
2018-11-13T16:19:13.753Z,3.07
2018-11-13T16:21:41.798Z,3.00
2018-11-13T16:24:09.762Z,2.90
2018-11-13T16:26:37.782Z,3.40
2018-11-13T16:29:05.957Z,2.30
2018-11-13T16:31:33.997Z,2.80
2018-11-13T16:34:01.984Z,2.80
2018-11-13T16:36:30.068Z,3.37
2018-11-13T16:38:58.117Z,4.30
2018-11-13T16:41:26.445Z,3.60
2018-11-13T16:43:54.457Z,3.53
2018-11-13T16:46:22.500Z,3.07
2018-11-13T16:48:50.592Z,3.53
2018-11-13T16:51:18.736Z,3.60
2018-11-13T16:53:52.292Z,3.60
2018-11-13T16:56:20.216Z,2.70
2018-11-13T16:58:48.207Z,2.67
2018-11-13T17:01:16.403Z,2.70
2018-11-13T17:03:44.376Z,3.07
2018-11-13T17:06:12.380Z,5.77
2018-11-13T17:08:40.317Z,3.03
2018-11-13T17:11:08.311Z,3.30
2018-11-13T17:13:36.322Z,3.10
2018-11-13T17:16:10.054Z,4.10
2018-11-13T17:18:38.125Z,4.20
2018-11-13T17:21:06.116Z,4.13
2018-11-13T17:23:34.138Z,4.47
2018-11-13T17:26:02.297Z,3.23
2018-11-13T17:28:30.185Z,4.47
2018-11-13T17:30:58.202Z,3.33
2018-11-13T17:33:26.197Z,3.80
2018-11-13T17:35:54.169Z,3.90
2018-11-13T17:38:22.157Z,4.20
2018-11-13T17:40:50.137Z,4.13
2018-11-13T17:43:18.141Z,3.80
2018-11-13T17:45:46.127Z,5.87
2018-11-13T17:48:14.196Z,4.60
2018-11-13T17:50:43.252Z,4.00
2018-11-13T17:53:11.684Z,6.20
2018-11-13T17:55:39.980Z,12.13
2018-11-13T17:58:11.418Z,6.47
2018-11-13T18:00:42.822Z,22.30
2018-11-13T18:03:11.983Z,3.93
2018-11-13T18:05:40.537Z,4.70
2018-11-13T18:08:09.257Z,3.70
2018-11-13T18:10:38.374Z,4.03
2018-11-13T18:13:06.905Z,3.80
2018-11-13T18:15:35.004Z,3.87
2018-11-13T18:18:03.352Z,4.27
2018-11-13T18:20:32.682Z,4.40
2018-11-13T18:23:00.688Z,5.33
2018-11-13T18:25:28.957Z,5.10
2018-11-13T18:27:58.047Z,5.40
2018-11-13T18:30:27.185Z,5.10
2018-11-13T18:32:55.681Z,4.70
2018-11-13T18:35:24.982Z,4.47
2018-11-13T18:37:53.738Z,4.80
2018-11-13T18:40:22.345Z,4.43
2018-11-13T18:42:51.121Z,5.77
2018-11-13T18:45:21.757Z,5.03
2018-11-13T18:47:49.795Z,5.50
2018-11-13T18:50:20.118Z,6.40
2018-11-13T18:52:48.104Z,8.17
2018-11-13T18:55:16.469Z,6.63
2018-11-13T18:57:44.776Z,6.33
2018-11-13T19:00:14.892Z,8.10
2018-11-13T19:02:42.965Z,7.70
2018-11-13T19:05:11.856Z,7.10
2018-11-13T19:07:40.200Z,5.40
2018-11-13T19:10:14.233Z,6.00
2018-11-13T19:12:42.373Z,6.97
2018-11-13T19:15:11.768Z,5.60
2018-11-13T19:17:39.845Z,6.47
2018-11-13T19:20:10.841Z,8.80
2018-11-13T19:22:38.890Z,6.73
2018-11-13T19:25:07.606Z,6.30
2018-11-13T19:27:35.634Z,5.93
2018-11-13T19:30:04.781Z,6.08
2018-11-13T19:32:32.665Z,5.97
2018-11-13T19:35:00.697Z,7.37
2018-11-13T19:37:28.683Z,6.50
2018-11-13T19:39:56.757Z,6.03
2018-11-13T19:42:24.701Z,6.30
2018-11-13T19:44:52.860Z,5.60
2018-11-13T19:47:20.853Z,5.90
2018-11-13T19:49:49.092Z,6.07
2018-11-13T19:52:17.020Z,5.40
2018-11-13T19:54:45.009Z,6.03
2018-11-13T19:57:13.004Z,6.43
2018-11-13T19:59:40.999Z,6.47
2018-11-13T20:02:10.102Z,5.57
2018-11-13T20:04:38.168Z,6.10
2018-11-13T20:07:06.298Z,7.50
2018-11-13T20:09:34.289Z,6.50
2018-11-13T20:12:02.348Z,6.60
2018-11-13T20:14:30.338Z,6.70
2018-11-13T20:16:58.451Z,7.30
2018-11-13T20:19:26.429Z,6.90
2018-11-13T20:21:54.534Z,6.40
2018-11-13T20:24:22.561Z,6.50
2018-11-13T20:26:50.590Z,6.67
2018-11-13T20:29:18.614Z,7.33
2018-11-13T20:31:46.608Z,5.90
2018-11-13T20:34:14.673Z,6.70
2018-11-13T20:36:42.761Z,7.30
2018-11-13T20:39:12.428Z,8.27
2018-11-13T20:41:40.386Z,6.83
2018-11-13T20:44:08.481Z,7.17
2018-11-13T20:46:36.566Z,7.73
2018-11-13T20:49:04.788Z,7.20
2018-11-13T20:51:32.931Z,8.00
2018-11-13T20:54:00.886Z,6.60
2018-11-13T20:56:28.958Z,7.20
2018-11-13T20:58:57.038Z,7.20
2018-11-13T21:01:25.188Z,7.40
2018-11-13T21:03:53.269Z,7.07
2018-11-13T21:06:21.353Z,7.47
2018-11-13T21:08:49.364Z,7.30
2018-11-13T21:11:17.501Z,8.43
2018-11-13T21:13:45.729Z,7.70
2018-11-13T21:16:13.859Z,7.13
2018-11-13T21:18:41.855Z,8.40
2018-11-13T21:21:09.900Z,7.50
2018-11-13T21:23:38.002Z,7.93
2018-11-13T21:26:06.132Z,8.70
2018-11-13T21:28:34.215Z,7.30
2018-11-13T21:31:02.197Z,7.70
2018-11-13T21:33:30.328Z,8.57
2018-11-13T21:35:58.365Z,8.20
2018-11-13T21:38:26.529Z,8.30
2018-11-13T21:40:54.546Z,7.77
2018-11-13T21:43:22.593Z,6.93
2018-11-13T21:45:50.687Z,9.50
2018-11-13T21:48:18.713Z,8.60
2018-11-13T21:50:46.697Z,9.13
2018-11-13T21:53:14.749Z,7.93
2018-11-13T21:55:42.894Z,9.10
2018-11-13T21:58:10.804Z,8.53
2018-11-13T22:00:39.140Z,8.37
2018-11-13T22:03:07.960Z,8.80
2018-11-13T22:05:36.630Z,10.27
2018-11-13T22:08:04.599Z,9.50
2018-11-13T22:10:32.567Z,8.93
2018-11-13T22:13:00.549Z,9.00
2018-11-13T22:15:29.445Z,8.03
2018-11-13T22:17:57.452Z,9.00
2018-11-13T22:20:25.704Z,10.23
2018-11-13T22:22:54.999Z,9.20
2018-11-13T22:25:24.468Z,11.20
2018-11-13T22:27:53.634Z,8.97
2018-11-13T22:30:22.847Z,9.50
2018-11-13T22:32:50.837Z,10.33
2018-11-13T22:35:19.514Z,8.60
2018-11-13T22:37:47.560Z,9.03
2018-11-13T22:40:16.848Z,10.03
2018-11-13T22:42:45.022Z,9.30
2018-11-13T22:45:14.916Z,9.77
2018-11-13T22:47:43.064Z,8.27
2018-11-13T22:50:13.019Z,10.00
2018-11-13T22:52:41.590Z,9.07
2018-11-13T22:55:10.835Z,9.70
2018-11-13T22:57:38.833Z,9.77
2018-11-13T23:00:39.601Z,9.73
2018-11-13T23:03:08.984Z,9.80
2018-11-13T23:05:36.988Z,9.40
2018-11-13T23:08:05.985Z,9.20
2018-11-13T23:10:33.973Z,9.67
2018-11-13T23:13:02.121Z,9.70
2018-11-13T23:15:30.069Z,10.33
2018-11-13T23:17:58.040Z,9.90
2018-11-13T23:20:26.066Z,9.70
2018-11-13T23:22:54.175Z,9.37
2018-11-13T23:25:22.204Z,9.37
2018-11-13T23:27:51.216Z,8.70
2018-11-13T23:30:22.257Z,9.57
2018-11-13T23:32:50.584Z,9.83
2018-11-13T23:35:18.828Z,8.80
2018-11-13T23:37:48.055Z,9.27
2018-11-13T23:40:17.352Z,10.07
2018-11-13T23:42:45.910Z,9.87
2018-11-13T23:45:14.921Z,9.80
2018-11-13T23:47:43.488Z,9.47
2018-11-13T23:50:11.813Z,11.40
2018-11-13T23:52:39.876Z,9.73
2018-11-13T23:55:09.120Z,9.40
2018-11-13T23:57:37.114Z,10.47
